createdAt,value
2022-10-07T00:01:07.387Z,46.38
2022-10-07T00:03:35.499Z,44.75
2022-10-07T00:06:18.863Z,49.03
2022-10-07T00:08:52.648Z,46.88
2022-10-07T00:11:22.674Z,44.15
2022-10-07T00:13:53.151Z,42.90
2022-10-07T00:16:24.628Z,47.67
2022-10-07T00:18:53.262Z,46.78
2022-10-07T00:21:20.629Z,43.53
2022-10-07T00:23:48.834Z,45.85
2022-10-07T00:26:21.647Z,48.88
2022-10-07T00:28:49.632Z,43.13
2022-10-07T00:31:24.604Z,42.38
2022-10-07T00:33:52.874Z,46.60
2022-10-07T00:36:23.792Z,45.00
2022-10-07T00:39:01.096Z,43.53
2022-10-07T00:41:43.430Z,41.60
2022-10-07T00:44:32.683Z,43.95
2022-10-07T00:47:03.527Z,40.42
2022-10-07T00:49:42.190Z,43.08
2022-10-07T00:52:09.858Z,38.67
2022-10-07T00:54:38.159Z,39.58
2022-10-07T00:57:06.204Z,39.13
2022-10-07T00:59:33.978Z,44.55
2022-10-07T01:02:01.447Z,40.63
2022-10-07T01:04:29.068Z,41.90
2022-10-07T01:06:57.030Z,39.60
2022-10-07T01:09:24.630Z,36.60
2022-10-07T01:11:54.735Z,37.95
2022-10-07T01:14:39.236Z,34.60
2022-10-07T01:17:09.324Z,40.50
2022-10-07T01:19:48.815Z,38.25
2022-10-07T01:22:19.868Z,42.90
2022-10-07T01:25:12.527Z,40.20
2022-10-07T01:30:09.219Z,30.80
2022-10-07T01:32:54.514Z,33.63
2022-10-07T01:35:26.113Z,39.00
2022-10-07T01:38:00.224Z,35.50
2022-10-07T01:40:38.535Z,33.63
2022-10-07T01:43:06.560Z,38.15
2022-10-07T01:45:39.060Z,39.55
2022-10-07T01:48:06.463Z,40.33
2022-10-07T01:50:35.426Z,33.90
2022-10-07T01:53:04.636Z,37.38
2022-10-07T01:55:55.411Z,31.52
2022-10-07T01:58:34.609Z,37.30
2022-10-07T02:01:16.399Z,34.08
2022-10-07T02:04:14.304Z,37.38
2022-10-07T02:06:53.812Z,41.88
2022-10-07T02:09:44.611Z,38.10
2022-10-07T02:12:27.251Z,37.53
2022-10-07T02:15:42.896Z,38.13
2022-10-07T02:18:16.280Z,35.80
2022-10-07T02:20:48.236Z,37.38
2022-10-07T02:23:18.023Z,39.92
2022-10-07T02:25:50.591Z,36.30
2022-10-07T02:28:22.327Z,37.88
2022-10-07T02:30:56.592Z,39.47
2022-10-07T02:33:27.685Z,35.83
2022-10-07T02:35:59.496Z,37.72
2022-10-07T02:38:27.616Z,37.00
2022-10-07T02:40:57.976Z,33.63
2022-10-07T02:43:39.199Z,32.53
2022-10-07T02:46:15.363Z,31.33
2022-10-07T02:49:10.813Z,35.53
2022-10-07T02:51:47.160Z,34.00
2022-10-07T02:54:20.474Z,31.58
2022-10-07T02:56:50.094Z,31.63
2022-10-07T02:59:18.963Z,30.10
2022-10-07T03:01:50.071Z,31.05
2022-10-07T03:04:18.664Z,29.90
2022-10-07T03:06:46.115Z,29.95
2022-10-07T03:09:13.809Z,28.40
2022-10-07T03:11:42.560Z,29.50
2022-10-07T03:14:10.435Z,31.63
2022-10-07T03:16:38.090Z,31.42
2022-10-07T03:19:05.669Z,32.83
2022-10-07T03:21:40.549Z,32.17
2022-10-07T03:24:08.318Z,32.58
2022-10-07T03:26:41.914Z,35.45
2022-10-07T03:29:10.455Z,30.02
2022-10-07T03:31:38.468Z,34.13
2022-10-07T03:34:06.137Z,32.60
2022-10-07T03:36:33.559Z,30.10
2022-10-07T03:39:01.241Z,29.52
2022-10-07T03:41:30.468Z,27.75
2022-10-07T03:44:00.763Z,27.92
2022-10-07T03:46:29.991Z,24.58
2022-10-07T03:48:58.441Z,27.80
2022-10-07T03:51:26.071Z,24.42
2022-10-07T03:53:57.314Z,23.42
2022-10-07T03:56:26.496Z,24.65
2022-10-07T03:58:54.039Z,26.13
2022-10-07T04:01:21.512Z,22.55
2022-10-07T04:06:21.013Z,25.50
2022-10-07T04:08:53.468Z,23.33
2022-10-07T04:11:22.196Z,21.33
2022-10-07T04:13:52.380Z,20.95
2022-10-07T04:16:23.064Z,24.60
2022-10-07T04:18:54.678Z,24.65
2022-10-07T04:21:23.200Z,21.65
2022-10-07T04:23:50.778Z,20.83
2022-10-07T04:26:18.230Z,19.50
2022-10-07T04:28:49.281Z,20.75
2022-10-07T04:31:22.302Z,24.00
2022-10-07T04:33:56.556Z,19.58
2022-10-07T04:36:28.674Z,22.95
2022-10-07T04:39:08.646Z,21.10
2022-10-07T04:41:39.888Z,24.10
2022-10-07T04:44:12.773Z,19.63
2022-10-07T04:46:48.028Z,24.27
2022-10-07T04:49:17.015Z,19.45
2022-10-07T04:51:44.462Z,18.10
2022-10-07T04:54:11.894Z,19.77
2022-10-07T04:56:48.903Z,21.05
2022-10-07T04:59:17.177Z,20.60
2022-10-07T05:01:44.815Z,20.45
2022-10-07T05:04:13.007Z,19.38
2022-10-07T05:06:40.421Z,23.45
2022-10-07T05:09:10.890Z,23.38
2022-10-07T05:11:42.065Z,17.42
2022-10-07T05:14:21.290Z,22.13
2022-10-07T05:16:50.458Z,18.75
2022-10-07T05:19:20.119Z,21.27
2022-10-07T05:21:48.361Z,15.88
2022-10-07T05:24:15.851Z,19.40
2022-10-07T05:26:43.833Z,19.15
2022-10-07T05:29:12.076Z,18.17
2022-10-07T05:31:45.978Z,19.33
2022-10-07T05:34:16.947Z,19.83
2022-10-07T05:36:44.520Z,17.88
2022-10-07T05:39:12.883Z,21.08
2022-10-07T05:41:49.138Z,21.08
2022-10-07T05:44:19.517Z,18.95
2022-10-07T05:46:49.647Z,19.48
2022-10-07T05:49:17.915Z,21.58
2022-10-07T05:51:45.418Z,20.83
2022-10-07T05:54:13.171Z,17.55
2022-10-07T05:56:43.373Z,19.52
2022-10-07T05:59:10.795Z,15.77
2022-10-07T06:01:42.825Z,21.23
2022-10-07T06:04:14.964Z,19.10
2022-10-07T06:06:46.172Z,20.42
2022-10-07T06:09:33.599Z,19.92
2022-10-07T06:12:24.123Z,17.13
2022-10-07T06:14:53.372Z,21.10
2022-10-07T06:17:20.885Z,16.40
2022-10-07T06:19:50.276Z,16.40
2022-10-07T06:22:19.378Z,20.08
2022-10-07T06:24:48.037Z,19.55
2022-10-07T06:27:16.136Z,19.08
2022-10-07T06:29:44.731Z,17.83
2022-10-07T06:32:12.470Z,18.83
2022-10-07T06:34:41.117Z,17.33
2022-10-07T06:37:09.644Z,19.83
2022-10-07T06:39:37.016Z,18.73
2022-10-07T06:42:04.655Z,17.80
2022-10-07T06:44:53.908Z,24.65
2022-10-07T06:47:23.389Z,16.30
2022-10-07T06:49:51.630Z,20.52
2022-10-07T06:52:19.265Z,17.38
2022-10-07T06:54:48.044Z,18.02
2022-10-07T06:57:43.592Z,21.10
2022-10-07T07:00:05.160Z,17.85
2022-10-07T07:02:34.054Z,22.60
2022-10-07T07:05:04.795Z,17.98
2022-10-07T07:07:32.582Z,21.63
2022-10-07T07:10:00.526Z,20.02
2022-10-07T07:12:28.673Z,19.20
2022-10-07T07:14:56.486Z,20.30
2022-10-07T07:17:23.961Z,21.75
2022-10-07T07:19:51.496Z,21.45
2022-10-07T07:22:19.769Z,22.58
2022-10-07T07:24:49.305Z,19.33
2022-10-07T07:27:16.733Z,19.95
2022-10-07T07:29:44.947Z,19.70
2022-10-07T07:32:13.075Z,19.65
2022-10-07T07:34:43.418Z,20.42
2022-10-07T07:37:15.202Z,17.60
2022-10-07T07:39:48.099Z,15.02
2022-10-07T07:42:18.872Z,14.38
2022-10-07T07:44:46.269Z,14.90
2022-10-07T07:47:17.243Z,18.00
2022-10-07T07:49:46.091Z,17.05
2022-10-07T07:52:19.325Z,17.42
2022-10-07T07:54:48.768Z,14.65
2022-10-07T07:57:16.365Z,16.63
2022-10-07T07:59:44.041Z,14.02
2022-10-07T08:02:13.882Z,17.23
2022-10-07T08:04:45.059Z,17.65
2022-10-07T08:07:13.423Z,12.00
2022-10-07T08:09:44.027Z,15.02
2022-10-07T08:12:11.997Z,12.63
2022-10-07T08:14:40.035Z,21.80
2022-10-07T08:17:07.895Z,19.02
2022-10-07T08:19:35.844Z,21.67
2022-10-07T08:22:05.015Z,23.45
2022-10-07T08:24:33.032Z,28.60
2022-10-07T08:27:00.528Z,22.13
2022-10-07T08:29:30.171Z,20.40
2022-10-07T08:31:57.708Z,17.52
2022-10-07T08:34:25.171Z,17.90
2022-10-07T08:36:52.588Z,11.10
2022-10-07T08:39:19.948Z,13.25
2022-10-07T08:41:54.347Z,10.90
2022-10-07T08:44:32.362Z,7.20
2022-10-07T08:47:24.733Z,7.85
2022-10-07T08:50:07.845Z,10.20
2022-10-07T08:52:38.024Z,7.68
2022-10-07T08:55:24.336Z,9.73
2022-10-07T08:58:15.732Z,5.40
2022-10-07T09:00:54.556Z,7.72
2022-10-07T09:03:43.825Z,6.88
2022-10-07T09:06:16.978Z,5.05
2022-10-07T09:08:48.077Z,5.68
2022-10-07T09:11:20.485Z,6.68
2022-10-07T09:13:52.318Z,10.27
2022-10-07T09:16:26.528Z,6.47
2022-10-07T09:18:57.748Z,15.98
2022-10-07T09:21:36.955Z,7.28
2022-10-07T09:24:20.054Z,7.18
2022-10-07T09:26:48.174Z,6.65
2022-10-07T09:29:19.983Z,6.63
2022-10-07T09:31:49.393Z,6.65
2022-10-07T09:34:27.087Z,5.03
2022-10-07T09:37:11.134Z,5.18
2022-10-07T09:39:39.687Z,5.57
2022-10-07T09:42:23.708Z,7.30
2022-10-07T09:44:53.524Z,4.07
2022-10-07T09:47:27.358Z,7.97
2022-10-07T09:49:59.615Z,4.70
2022-10-07T09:54:58.015Z,6.57
2022-10-07T09:57:28.176Z,7.72
2022-10-07T10:00:13.977Z,4.90
2022-10-07T10:02:46.602Z,5.15
2022-10-07T10:05:57.808Z,7.38
2022-10-07T10:08:35.750Z,5.38
2022-10-07T10:11:25.821Z,11.88
2022-10-07T10:13:53.207Z,5.70
2022-10-07T10:16:36.805Z,19.60
2022-10-07T10:19:06.180Z,8.57
2022-10-07T10:21:36.678Z,8.63
2022-10-07T10:24:42.853Z,7.28
2022-10-07T10:27:33.516Z,6.03
2022-10-07T10:30:06.814Z,7.38
2022-10-07T10:32:49.300Z,5.78
2022-10-07T10:35:31.036Z,9.18
2022-10-07T10:38:11.029Z,6.50
2022-10-07T10:40:42.136Z,8.35
2022-10-07T10:43:20.231Z,5.60
2022-10-07T10:46:12.289Z,7.78
2022-10-07T10:48:44.197Z,8.77
2022-10-07T10:51:56.408Z,6.32
2022-10-07T10:54:38.807Z,31.70
2022-10-07T10:57:36.511Z,4.25
2022-10-07T11:00:06.949Z,7.10
2022-10-07T11:02:37.402Z,4.07
2022-10-07T11:05:14.069Z,7.63
2022-10-07T11:07:53.904Z,12.18
2022-10-07T11:10:25.561Z,15.18
2022-10-07T11:13:05.115Z,15.07
2022-10-07T11:15:41.761Z,8.95
2022-10-07T11:18:35.194Z,5.40
2022-10-07T11:21:07.303Z,9.02
2022-10-07T11:24:04.639Z,4.88
2022-10-07T11:26:40.109Z,6.03
2022-10-07T11:29:30.559Z,7.72
2022-10-07T11:32:38.257Z,10.43
2022-10-07T11:35:23.635Z,9.30
2022-10-07T11:38:10.386Z,6.50
2022-10-07T11:40:54.038Z,12.93
2022-10-07T11:43:30.599Z,6.00
2022-10-07T11:46:04.946Z,6.50
2022-10-07T11:49:05.186Z,11.98
2022-10-07T11:51:37.922Z,5.80
2022-10-07T11:54:12.719Z,6.15
2022-10-07T11:56:50.506Z,10.15
2022-10-07T11:59:38.753Z,6.05
2022-10-07T12:02:28.679Z,7.43
2022-10-07T12:04:57.651Z,6.60
2022-10-07T12:07:35.155Z,5.45
2022-10-07T12:10:03.324Z,5.65
2022-10-07T12:12:46.264Z,7.88
2022-10-07T12:15:34.990Z,5.43
2022-10-07T12:18:05.139Z,5.18
2022-10-07T12:20:37.160Z,6.95
2022-10-07T12:23:19.796Z,5.20
2022-10-07T12:25:49.458Z,5.90
2022-10-07T12:28:35.321Z,7.10
2022-10-07T12:31:14.492Z,7.85
2022-10-07T12:33:44.942Z,10.55
2022-10-07T12:36:21.453Z,8.93
2022-10-07T12:38:59.089Z,5.13
2022-10-07T12:41:43.186Z,7.32
2022-10-07T12:44:30.387Z,8.45
2022-10-07T12:47:05.661Z,9.15
2022-10-07T12:49:54.586Z,7.93
2022-10-07T12:52:54.697Z,7.57
2022-10-07T12:55:30.613Z,8.90
2022-10-07T12:58:17.517Z,14.40
2022-10-07T13:01:14.365Z,6.53
2022-10-07T13:04:01.116Z,6.90
2022-10-07T13:06:58.968Z,11.70
2022-10-07T13:09:41.391Z,12.90
2022-10-07T13:12:17.345Z,15.52
2022-10-07T13:15:15.422Z,10.63
2022-10-07T13:17:45.577Z,9.63
2022-10-07T13:20:18.851Z,9.48
2022-10-07T13:22:48.439Z,5.53
2022-10-07T13:25:19.694Z,6.88
2022-10-07T13:27:55.235Z,8.68
2022-10-07T13:30:36.480Z,11.13
2022-10-07T13:33:17.073Z,11.15
2022-10-07T13:35:44.490Z,5.78
2022-10-07T13:38:21.941Z,7.10
2022-10-07T13:41:23.723Z,6.68
2022-10-07T13:43:54.620Z,10.65
2022-10-07T13:46:26.433Z,5.75
2022-10-07T13:48:57.453Z,9.77
2022-10-07T13:51:29.562Z,6.35
2022-10-07T13:54:00.019Z,11.77
2022-10-07T13:56:48.719Z,12.57
2022-10-07T13:59:17.951Z,5.13
2022-10-07T14:01:48.879Z,12.73
2022-10-07T14:04:26.416Z,8.82
2022-10-07T14:07:15.229Z,8.57
2022-10-07T14:10:10.212Z,7.57
2022-10-07T14:12:41.987Z,9.57
2022-10-07T14:15:15.696Z,9.10
2022-10-07T14:18:13.283Z,9.30
2022-10-07T14:20:46.007Z,7.50
2022-10-07T14:23:33.833Z,6.93
2022-10-07T14:26:18.109Z,14.43
2022-10-07T14:28:45.877Z,10.52
2022-10-07T14:31:39.417Z,17.83
2022-10-07T14:34:36.871Z,9.77
2022-10-07T14:37:28.443Z,7.65
2022-10-07T14:39:58.441Z,11.77
2022-10-07T14:42:33.416Z,7.90
2022-10-07T14:45:03.261Z,8.85
2022-10-07T14:47:38.135Z,8.18
2022-10-07T14:50:06.514Z,6.53
2022-10-07T14:52:45.065Z,5.20
2022-10-07T14:55:22.239Z,9.88
2022-10-07T14:57:50.166Z,7.22
2022-10-07T15:00:20.664Z,6.03
2022-10-07T15:02:53.209Z,5.95
2022-10-07T15:05:22.614Z,9.50
2022-10-07T15:07:51.014Z,8.50
2022-10-07T15:10:21.590Z,6.13
2022-10-07T15:12:49.518Z,7.93
2022-10-07T15:15:18.237Z,7.30
2022-10-07T15:17:46.008Z,6.88
2022-10-07T15:20:15.349Z,14.20
2022-10-07T15:22:44.183Z,6.90
2022-10-07T15:25:12.649Z,3.85
2022-10-07T15:27:40.094Z,9.18
2022-10-07T15:30:07.908Z,10.10
2022-10-07T15:32:35.478Z,5.72
2022-10-07T15:35:03.041Z,8.65
2022-10-07T15:37:32.360Z,10.05
2022-10-07T15:39:59.895Z,9.90
2022-10-07T15:42:27.345Z,12.98
2022-10-07T15:44:54.859Z,11.15
2022-10-07T15:47:22.320Z,6.47
2022-10-07T15:49:49.919Z,11.27
2022-10-07T15:52:17.345Z,16.40
2022-10-07T15:54:46.488Z,15.35
2022-10-07T15:57:14.408Z,13.35
2022-10-07T15:59:42.228Z,19.50
2022-10-07T16:02:17.668Z,10.95
2022-10-07T16:04:45.317Z,8.95
2022-10-07T16:07:13.067Z,15.32
2022-10-07T16:09:40.867Z,11.10
2022-10-07T16:12:08.932Z,15.65
2022-10-07T16:14:36.357Z,10.05
2022-10-07T16:17:04.173Z,12.13
2022-10-07T16:19:31.578Z,10.05
2022-10-07T16:21:58.992Z,7.68
2022-10-07T16:24:27.535Z,19.30
2022-10-07T16:26:57.240Z,12.23
2022-10-07T16:29:43.503Z,10.35
2022-10-07T16:32:11.467Z,8.85
2022-10-07T16:34:43.307Z,14.30
2022-10-07T16:37:11.831Z,12.68
2022-10-07T16:39:39.299Z,9.50
2022-10-07T16:42:06.954Z,10.05
2022-10-07T16:44:34.405Z,17.75
2022-10-07T16:47:01.836Z,16.42
2022-10-07T16:49:30.266Z,17.10
2022-10-07T16:51:58.475Z,18.85
2022-10-07T16:54:28.510Z,16.13
2022-10-07T16:56:57.668Z,15.57
2022-10-07T16:59:26.012Z,16.05
2022-10-07T17:01:55.965Z,16.63
2022-10-07T17:04:24.786Z,12.27
2022-10-07T17:06:53.061Z,14.45
2022-10-07T17:09:21.875Z,15.65
2022-10-07T17:11:49.624Z,16.00
2022-10-07T17:14:21.363Z,15.27
2022-10-07T17:16:51.224Z,20.85
2022-10-07T17:19:20.699Z,17.38
2022-10-07T17:21:49.266Z,19.05
2022-10-07T17:24:18.450Z,19.50
2022-10-07T17:26:46.484Z,18.08
2022-10-07T17:29:18.247Z,18.92
2022-10-07T17:31:48.366Z,18.70
2022-10-07T17:34:16.781Z,10.27
2022-10-07T17:36:44.251Z,14.85
2022-10-07T17:39:12.246Z,22.80
2022-10-07T17:41:40.145Z,25.23
2022-10-07T17:44:10.276Z,23.30
2022-10-07T17:46:39.371Z,20.55
2022-10-07T17:49:09.467Z,17.02
2022-10-07T17:51:37.505Z,22.20
2022-10-07T17:54:06.434Z,18.80
2022-10-07T17:56:34.748Z,19.02
2022-10-07T17:59:03.296Z,21.15
2022-10-07T18:01:34.221Z,19.05
2022-10-07T18:04:07.151Z,16.48
2022-10-07T18:06:36.695Z,14.40
2022-10-07T18:09:06.753Z,24.25
2022-10-07T18:11:53.700Z,17.35
2022-10-07T18:14:40.173Z,13.52
2022-10-07T18:17:09.669Z,16.85
2022-10-07T18:19:37.886Z,18.35
2022-10-07T18:22:05.840Z,18.58
2022-10-07T18:24:33.314Z,14.30
2022-10-07T18:27:01.632Z,17.55
2022-10-07T18:29:31.346Z,14.82
2022-10-07T18:31:59.826Z,16.05
2022-10-07T18:34:27.328Z,13.48
2022-10-07T18:36:57.041Z,13.35
2022-10-07T18:39:27.640Z,17.73
2022-10-07T18:41:55.865Z,11.18
2022-10-07T18:44:23.397Z,12.75
2022-10-07T18:46:51.513Z,14.93
2022-10-07T18:49:19.148Z,13.57
2022-10-07T18:51:47.297Z,16.75
2022-10-07T18:54:14.805Z,14.40
2022-10-07T18:56:42.144Z,12.88
2022-10-07T18:59:13.048Z,12.32
2022-10-07T19:01:40.782Z,11.05
2022-10-07T19:04:09.697Z,14.95
2022-10-07T19:06:39.258Z,15.82
2022-10-07T19:09:11.641Z,14.75
2022-10-07T19:11:39.217Z,18.70
2022-10-07T19:14:06.626Z,12.55
2022-10-07T19:16:36.641Z,20.20
2022-10-07T19:19:17.207Z,16.38
2022-10-07T19:21:47.452Z,13.88
2022-10-07T19:24:15.963Z,17.63
2022-10-07T19:26:49.008Z,12.07
2022-10-07T19:29:18.007Z,16.50
2022-10-07T19:31:48.794Z,17.67
2022-10-07T19:34:19.667Z,13.55
2022-10-07T19:36:48.377Z,16.27
2022-10-07T19:39:18.827Z,16.70
2022-10-07T19:41:46.903Z,14.65
2022-10-07T19:44:15.219Z,15.70
2022-10-07T19:46:42.960Z,15.52
2022-10-07T19:49:10.793Z,15.85
2022-10-07T19:51:38.910Z,15.05
2022-10-07T19:54:10.829Z,12.88
2022-10-07T19:56:39.824Z,16.88
2022-10-07T19:59:12.852Z,13.85
2022-10-07T20:01:42.817Z,18.63
2022-10-07T20:04:13.187Z,18.73
2022-10-07T20:06:41.250Z,13.85
2022-10-07T20:09:10.976Z,13.57
2022-10-07T20:11:38.362Z,13.50
2022-10-07T20:14:06.657Z,16.05
2022-10-07T20:16:34.641Z,23.25
2022-10-07T20:19:05.845Z,17.42
2022-10-07T20:21:36.010Z,17.80
2022-10-07T20:24:04.261Z,16.02
2022-10-07T20:26:34.955Z,15.10
2022-10-07T20:29:04.418Z,16.10
2022-10-07T20:31:34.988Z,15.77
2022-10-07T20:34:03.265Z,16.17
2022-10-07T20:36:32.983Z,16.58
2022-10-07T20:39:21.883Z,16.25
2022-10-07T20:42:08.910Z,17.20
2022-10-07T20:44:36.832Z,17.23
2022-10-07T20:47:08.667Z,16.42
2022-10-07T20:49:38.653Z,13.23
2022-10-07T20:52:17.613Z,13.82
2022-10-07T20:54:45.702Z,16.27
2022-10-07T20:57:15.834Z,18.38
2022-10-07T20:59:43.810Z,13.75
2022-10-07T21:02:13.586Z,15.93
2022-10-07T21:04:41.603Z,16.65
2022-10-07T21:07:09.533Z,18.33
2022-10-07T21:09:37.211Z,16.38
2022-10-07T21:12:07.461Z,18.63
2022-10-07T21:14:36.713Z,17.30
2022-10-07T21:17:05.771Z,19.02
2022-10-07T21:19:35.655Z,19.13
2022-10-07T21:22:04.843Z,16.33
2022-10-07T21:24:35.742Z,12.55
2022-10-07T21:27:04.921Z,12.35
2022-10-07T21:29:36.422Z,15.55
2022-10-07T21:32:09.336Z,16.20
2022-10-07T21:34:37.294Z,15.10
2022-10-07T21:37:04.857Z,15.23
2022-10-07T21:39:32.400Z,18.85
2022-10-07T21:41:59.911Z,19.73
2022-10-07T21:44:28.087Z,17.90
2022-10-07T21:46:55.568Z,15.50
2022-10-07T21:49:23.369Z,16.48
2022-10-07T21:51:50.710Z,21.05
2022-10-07T22:00:06.615Z,18.20
2022-10-07T22:02:39.370Z,15.32
2022-10-07T22:05:07.117Z,17.02
2022-10-07T22:07:52.850Z,13.60
2022-10-07T22:10:20.194Z,19.42
2022-10-07T22:12:48.375Z,20.98
2022-10-07T22:15:17.023Z,17.02
2022-10-07T22:17:44.543Z,18.48
2022-10-07T22:20:11.995Z,15.40
2022-10-07T22:22:40.240Z,14.98
2022-10-07T22:25:08.364Z,12.32
2022-10-07T22:27:35.926Z,19.77
2022-10-07T22:30:04.432Z,14.00
2022-10-07T22:32:31.751Z,17.02
2022-10-07T22:35:17.480Z,18.70
2022-10-07T22:37:44.974Z,15.35
2022-10-07T22:40:12.320Z,17.15
2022-10-07T22:42:39.706Z,18.83
2022-10-07T22:45:07.442Z,16.77
2022-10-07T22:47:37.231Z,15.82
2022-10-07T22:50:06.191Z,15.95
2022-10-07T22:52:35.473Z,23.83
2022-10-07T22:55:08.447Z,17.42
2022-10-07T22:57:36.529Z,22.02
2022-10-07T23:00:07.335Z,18.15
2022-10-07T23:02:34.856Z,16.67
2022-10-07T23:05:02.444Z,15.32
2022-10-07T23:07:29.815Z,16.58
2022-10-07T23:09:57.190Z,20.98
2022-10-07T23:12:24.673Z,20.75
2022-10-07T23:14:52.021Z,18.17
2022-10-07T23:17:19.348Z,17.70
2022-10-07T23:19:46.726Z,23.05
2022-10-07T23:22:14.080Z,15.70
2022-10-07T23:24:41.471Z,16.60
2022-10-07T23:27:10.219Z,14.65
2022-10-07T23:29:37.584Z,16.88
2022-10-07T23:32:05.007Z,16.98
2022-10-07T23:34:32.394Z,17.75
2022-10-07T23:36:59.719Z,22.30
2022-10-07T23:39:27.560Z,27.05
2022-10-07T23:41:54.993Z,19.85
2022-10-07T23:44:23.054Z,22.63
2022-10-07T23:46:51.760Z,21.13
2022-10-07T23:49:19.188Z,16.98
2022-10-07T23:51:47.459Z,18.42
2022-10-07T23:54:14.886Z,17.30
2022-10-07T23:56:42.354Z,19.23
2022-10-07T23:59:09.746Z,14.48
